WetterOnline ( https://www.wetteronline.de )

Wetter aktuell Helgoland

Aktuelles Wetter: Helgoland/Düne (8m)

6-stündlich | Neueste Meldungen
Ortszeit Temperatur Wetter
Do, 13.06. 2:00 11.1° C fast wolkenlos
Mi, 12.06. 20:00 11.4° C leichter Regen
Mi, 12.06. 14:00 11.8° C leichter Regen
Mi, 12.06. 8:00 11.2° C leichter Regen
Mi, 12.06. 2:00 11.7° C wolkig
Di, 11.06. 20:00 12.8° C leicht bewölkt
Di, 11.06. 14:00 13.5° C bewölkt
Di, 11.06. 8:00 11.2° C leichter Regen
Ortszeit Temperatur Wetter
Do, 13.06. 2:30 11.2° C wolkig
Do, 13.06. 2:20 11.2° C wolkig
Do, 13.06. 2:10 11.1° C wolkig
Do, 13.06. 2:00 11.1° C fast wolkenlos
Do, 13.06. 1:50 11.1° C fast wolkenlos
Do, 13.06. 1:40 11.1° C leicht bewölkt
Do, 13.06. 1:30 11.1° C leicht bewölkt
Do, 13.06. 1:00 11.1° C leicht bewölkt
Do, 13.06. 0:30 10.2° C bewölkt
Do, 13.06. 0:00 10.7° C leichter Regen
Mi, 12.06. 23:30 11.1° C leicht bewölkt
Ortszeit Relative Feuchte Sichtweite
Do, 13.06. 2:00 72% 45 km
Mi, 12.06. 20:00 78% 19 km
Mi, 12.06. 14:00 76% 25 km
Mi, 12.06. 8:00 80% 19 km
Mi, 12.06. 2:00 77% 28 km
Di, 11.06. 20:00 78% 35 km
Di, 11.06. 14:00 78% 30 km
Di, 11.06. 8:00 83% 30 km
Ortszeit Relative Feuchte Sichtweite
Do, 13.06. 2:30 72% 45 km
Do, 13.06. 2:20 72% -
Do, 13.06. 2:10 75% -
Do, 13.06. 2:00 72% 45 km
Do, 13.06. 1:50 72% -
Do, 13.06. 1:40 73% -
Do, 13.06. 1:30 71% 45 km
Do, 13.06. 1:00 72% 50 km
Do, 13.06. 0:30 76% 40 km
Do, 13.06. 0:00 80% 29 km
Mi, 12.06. 23:30 75% 40 km
Ortszeit Niederschlagsmenge Niederschlagsart
Do, 13.06. 2:00 0.1 l/m2 in 6 Std. Regen
Mi, 12.06. 20:00 1 l/m2 in 12 Std. Regen
Mi, 12.06. 14:00 0.1 l/m2 in 6 Std. Regen
Mi, 12.06. 8:00 2 l/m2 in 12 Std. Regen
Mi, 12.06. 2:00 0.4 l/m2 in 6 Std. Regen, Niederschlag
Di, 11.06. 20:00 0.1 l/m2 in 12 Std. Niederschlag
Di, 11.06. 14:00 0.1 l/m2 in 6 Std. Regen
Di, 11.06. 8:00 13 l/m2 in 12 Std. Regen
Ortszeit Niederschlagsmenge Niederschlagsart
Do, 13.06. 2:30 0.0 l/m2 in 30 Min -
Do, 13.06. 2:20 keine Meldung -
Do, 13.06. 2:10 keine Meldung -
Do, 13.06. 2:00 0.0 l/m2 in 1 Std. Regen
Do, 13.06. 1:50 keine Meldung -
Do, 13.06. 1:40 keine Meldung -
Do, 13.06. 1:30 0.0 l/m2 in 30 Min -
Do, 13.06. 1:00 0.1 l/m2 in 1 Std. Regen
Do, 13.06. 0:30 0.1 l/m2 in 30 Min Schneeregen
Do, 13.06. 0:00 <0.05 l/m2 in 1 Std. Regen
Mi, 12.06. 23:30 0.0 l/m2 in 30 Min -
Ortszeit Stärke Spitze Richtung
km/h Bft. km/h Grad Sektor
Do, 13.06. 2:00 25 4 47 280° W
Mi, 12.06. 20:00 26 4 44 290° W
Mi, 12.06. 14:00 26 4 44 290° W
Mi, 12.06. 8:00 30 5 50 290° W
Mi, 12.06. 2:00 29 5 54 300° NW
Di, 11.06. 20:00 24 4 48 290° W
Di, 11.06. 14:00 26 4 50 270° W
Di, 11.06. 8:00 26 4 46 280° W
Ortszeit Stärke Spitze Richtung
km/h Bft. km/h Grad Sektor
Do, 13.06. 2:30 25 4 32 280° W
Do, 13.06. 2:20 25 4 - 280° W
Do, 13.06. 2:10 25 4 - 280° W
Do, 13.06. 2:00 25 4 36 280° W
Do, 13.06. 1:50 25 4 - 280° W
Do, 13.06. 1:40 25 4 - 280° W
Do, 13.06. 1:30 26 4 37 290° W
Do, 13.06. 1:00 22 4 47 290° W
Do, 13.06. 0:30 33 5 46 310° NW
Do, 13.06. 0:00 28 4 41 260° W
Mi, 12.06. 23:30 29 5 40 290° W
Ortszeit Untergrenze Bedeckung Gattung
total tief tief mittel hoch
Do, 13.06. 2:00 720 m 1/8 1/8 - - -
Mi, 12.06. 20:00 720 m 7/8 7/8 - - -
Mi, 12.06. 14:00 930 m 7/8 4/8 - - -
Mi, 12.06. 8:00 810 m 8/8 7/8 - - -
Mi, 12.06. 2:00 1470 m 5/8 5/8 - - -
Di, 11.06. 20:00 540 m 4/8 3/8 - - -
Di, 11.06. 14:00 1500 m 7/8 7/8 - - -
Di, 11.06. 8:00 570 m 8/8 8/8 - - -
Ortszeit Bedeckungsgrad in Achtel und Wolkenuntergrenze
Do, 13.06. 2:30 1(660m) 4(1260m) 5(1500m)
Do, 13.06. 2:20 1(660m) 4(1260m) 5(1500m)
Do, 13.06. 2:10 5
Do, 13.06. 2:00 1(720m)
Do, 13.06. 1:50 1(720m)
Do, 13.06. 1:40 2
Do, 13.06. 1:30 2(750m) 3(1350m)
Do, 13.06. 1:00 1(690m) 3(1500m)
Do, 13.06. 0:30 2(870m) 5(1470m) 7(2700m)
Do, 13.06. 0:00 2(1140m) 7(1500m) 7(1800m)
Mi, 12.06. 23:30 1(840m)
Ortszeit Luftdruck NN (hPa) Tendenz (hPa in 3 Std.)
Do, 13.06. 2:00 1016 - 0,2
Mi, 12.06. 20:00 1016 + 0,1
Mi, 12.06. 14:00 1016 + 0,8
Mi, 12.06. 8:00 1015 + 0,9
Mi, 12.06. 2:00 1014 + 0,5
Di, 11.06. 20:00 1012 + 0,5
Di, 11.06. 14:00 1010 + 1,6
Di, 11.06. 8:00 1007 + 1,1
Ortszeit Luftdruck NN (hPa) Tendenz (hPa in 3 Std.)
Do, 13.06. 2:30 1016 - 0,2
Do, 13.06. 2:20 1016 keine Meldung
Do, 13.06. 2:10 1016 keine Meldung
Do, 13.06. 2:00 1016 - 0,2
Do, 13.06. 1:50 1016 keine Meldung
Do, 13.06. 1:40 1016 keine Meldung
Do, 13.06. 1:30 1016 0,0
Do, 13.06. 1:00 1016 + 0,1
Do, 13.06. 0:30 1016 + 0,4
Do, 13.06. 0:00 1016 + 0,4
Mi, 12.06. 23:30 1016 + 0,4
Ortszeit Schneehöhe (cm)
Do, 13.06. 2:00 0
Mi, 12.06. 20:00 0
Mi, 12.06. 14:00 0
Mi, 12.06. 8:00 0
Mi, 12.06. 2:00 0
Di, 11.06. 20:00 0
Di, 11.06. 14:00 0
Di, 11.06. 8:00 0
Ortszeit Schneehöhe (cm)
Do, 13.06. 2:30 0
Do, 13.06. 2:20 0
Do, 13.06. 2:10 -
Do, 13.06. 2:00 0
Do, 13.06. 1:50 0
Do, 13.06. 1:40 -
Do, 13.06. 1:30 0
Do, 13.06. 1:00 0
Do, 13.06. 0:30 0
Do, 13.06. 0:00 0
Mi, 12.06. 23:30 0
Link zu dieser Seite / Seite empfehlen

Das Wetter in ...